createdAt,value
2023-02-17T00:01:49.407Z,100991.34
2023-02-17T00:04:17.646Z,100994.00
2023-02-17T00:06:48.790Z,101000.13
2023-02-17T00:09:18.982Z,100973.78
2023-02-17T00:11:47.514Z,100987.88
2023-02-17T00:14:17.488Z,100988.75
2023-02-17T00:16:46.308Z,100983.47
2023-02-17T00:19:26.679Z,100976.44
2023-02-17T00:22:00.538Z,100977.22
2023-02-17T00:24:32.097Z,100974.72
2023-02-17T00:27:03.201Z,100968.63
2023-02-17T00:29:31.274Z,100970.41
2023-02-17T00:31:59.837Z,100959.91
2023-02-17T00:34:28.783Z,100952.94
2023-02-17T00:36:57.141Z,100952.97
2023-02-17T00:39:27.501Z,100949.44
2023-02-17T00:41:58.775Z,100941.53
2023-02-17T00:44:27.286Z,100945.94
2023-02-17T00:46:55.577Z,100937.22
2023-02-17T00:49:26.172Z,100938.09
2023-02-17T00:51:58.046Z,100931.03
2023-02-17T00:54:26.768Z,100946.78
2023-02-17T00:56:56.450Z,100919.63
2023-02-17T00:59:25.001Z,100918.78
2023-02-17T01:01:53.499Z,100917.91
2023-02-17T01:04:21.890Z,100924.06
2023-02-17T01:06:50.418Z,100892.53
2023-02-17T01:09:19.138Z,100900.47
2023-02-17T01:11:47.480Z,100896.94
2023-02-17T01:14:17.289Z,100896.94
2023-02-17T01:16:48.778Z,100898.75
2023-02-17T01:19:19.895Z,100884.72
2023-02-17T01:21:48.620Z,100884.69
2023-02-17T01:24:16.871Z,100885.63
2023-02-17T01:26:44.977Z,100882.13
2023-02-17T01:29:13.282Z,100879.50
2023-02-17T01:31:43.147Z,100869.81
2023-02-17T01:34:12.212Z,100868.09
2023-02-17T01:36:40.634Z,100857.53
2023-02-17T01:39:08.917Z,100860.22
2023-02-17T01:41:37.018Z,100856.69
2023-02-17T01:44:12.370Z,100851.44
2023-02-17T01:46:43.615Z,100844.44
2023-02-17T01:49:22.810Z,100839.16
2023-02-17T01:51:55.054Z,100837.38
2023-02-17T01:54:28.362Z,100822.53
2023-02-17T01:56:59.703Z,100816.41
2023-02-17T01:59:30.115Z,100811.19
2023-02-17T02:02:04.861Z,100810.28
2023-02-17T02:04:37.984Z,100811.19
2023-02-17T02:07:11.461Z,100811.19
2023-02-17T02:09:44.727Z,100810.25
2023-02-17T02:12:21.133Z,100797.16
2023-02-17T02:14:51.384Z,100795.44
2023-02-17T02:17:33.033Z,100790.97
2023-02-17T02:20:34.735Z,100790.00
2023-02-17T02:23:34.514Z,100769.88
2023-02-17T02:26:32.581Z,100781.22
2023-02-17T02:29:24.140Z,100762.84
2023-02-17T02:32:06.987Z,100756.78
2023-02-17T02:34:40.998Z,100742.81
2023-02-17T02:37:14.009Z,100721.81
2023-02-17T02:39:48.390Z,100751.50
2023-02-17T02:42:20.250Z,100735.84
2023-02-17T02:44:48.836Z,100735.84
2023-02-17T02:47:43.946Z,100721.91
2023-02-17T02:50:16.292Z,100700.03
2023-02-17T02:52:56.322Z,100708.78
2023-02-17T02:55:36.495Z,100713.19
2023-02-17T02:58:12.719Z,100695.69
2023-02-17T03:00:45.915Z,100707.97
2023-02-17T03:03:19.948Z,100707.94
2023-02-17T03:05:56.235Z,100703.56
2023-02-17T03:08:30.802Z,100698.31
2023-02-17T03:10:59.343Z,100674.66
2023-02-17T03:13:27.872Z,100646.66
2023-02-17T03:15:56.384Z,100677.31
2023-02-17T03:18:24.532Z,100660.75
2023-02-17T03:20:57.680Z,100655.44
2023-02-17T03:23:25.864Z,100615.19
2023-02-17T03:25:54.200Z,100653.75
2023-02-17T03:28:22.270Z,100633.63
2023-02-17T03:30:50.306Z,100638.00
2023-02-17T03:33:18.903Z,100615.28
2023-02-17T03:35:50.041Z,100617.03
2023-02-17T03:38:20.174Z,100622.31
2023-02-17T03:40:48.556Z,100609.19
2023-02-17T03:43:18.222Z,100599.56
2023-02-17T03:45:46.721Z,100589.09
2023-02-17T03:48:14.844Z,100590.84
2023-02-17T03:50:43.102Z,100582.09
2023-02-17T03:53:12.756Z,100554.97
2023-02-17T03:55:42.218Z,100547.13
2023-02-17T03:58:10.621Z,100550.63
2023-02-17T04:00:39.202Z,100540.09
2023-02-17T04:03:07.311Z,100538.38
2023-02-17T04:05:35.609Z,100523.50
2023-02-17T04:08:03.901Z,100514.75
2023-02-17T04:10:32.095Z,100520.00
2023-02-17T04:13:01.855Z,100513.91
2023-02-17T04:15:31.045Z,100512.13
2023-02-17T04:17:59.125Z,100469.31
2023-02-17T04:20:27.311Z,100496.38
2023-02-17T04:22:55.589Z,100491.16
2023-02-17T04:25:23.670Z,100496.41
2023-02-17T04:27:52.148Z,100485.94
2023-02-17T04:30:22.199Z,100447.47
2023-02-17T04:32:50.223Z,100471.94
2023-02-17T04:35:18.696Z,100461.44
2023-02-17T04:37:46.989Z,100459.69
2023-02-17T04:40:15.577Z,100452.66
2023-02-17T04:42:43.877Z,100440.44
2023-02-17T04:45:13.146Z,100442.19
2023-02-17T04:47:42.839Z,100429.09
2023-02-17T04:50:12.288Z,100424.72
2023-02-17T04:52:40.739Z,100417.75
2023-02-17T04:55:09.594Z,100410.75
2023-02-17T04:57:38.013Z,100402.03
2023-02-17T05:00:07.522Z,100382.81
2023-02-17T05:02:35.869Z,100376.63
2023-02-17T05:05:05.805Z,100376.63
2023-02-17T05:07:34.333Z,100358.28
2023-02-17T05:10:02.543Z,100351.28
2023-02-17T05:12:30.966Z,100340.78
2023-02-17T05:14:59.168Z,100342.50
2023-02-17T05:17:27.390Z,100341.63
2023-02-17T05:19:55.649Z,100332.06
2023-02-17T05:22:25.902Z,100315.44
2023-02-17T05:24:54.435Z,100312.84
2023-02-17T05:27:22.738Z,100305.81
2023-02-17T05:29:51.614Z,100300.56
2023-02-17T05:32:20.476Z,100283.09
2023-02-17T05:34:48.871Z,100279.59
2023-02-17T05:37:17.447Z,100261.19
2023-02-17T05:39:47.078Z,100239.34
2023-02-17T05:42:15.545Z,100249.81
2023-02-17T05:44:44.194Z,100232.25
2023-02-17T05:47:12.298Z,100220.03
2023-02-17T05:49:40.630Z,100203.47
2023-02-17T05:52:08.950Z,100196.53
2023-02-17T05:54:37.324Z,100165.91
2023-02-17T05:57:07.451Z,100167.84
2023-02-17T05:59:35.785Z,100132.09
2023-02-17T06:02:03.847Z,100169.38
2023-02-17T06:04:32.114Z,100158.81
2023-02-17T06:07:00.325Z,100160.53
2023-02-17T06:09:28.598Z,100162.31
2023-02-17T06:11:57.046Z,100155.31
2023-02-17T06:14:26.705Z,100146.59
2023-02-17T06:16:57.089Z,100141.34
2023-02-17T06:19:25.328Z,100130.91
2023-02-17T06:21:53.791Z,100122.97
2023-02-17T06:24:21.957Z,100102.97
2023-02-17T06:26:53.661Z,100107.16
2023-02-17T06:29:21.846Z,100098.41
2023-02-17T06:31:53.780Z,100090.59
2023-02-17T06:34:22.138Z,100052.28
2023-02-17T06:36:50.480Z,100083.59
2023-02-17T06:39:18.801Z,100078.41
2023-02-17T06:41:47.719Z,100072.31
2023-02-17T06:44:19.152Z,100071.38
2023-02-17T06:46:47.420Z,100073.13
2023-02-17T06:49:19.124Z,100069.69
2023-02-17T06:51:47.437Z,100050.50
2023-02-17T06:54:15.691Z,100015.53
2023-02-17T06:56:44.032Z,100022.31
2023-02-17T06:59:12.101Z,100022.31
2023-02-17T07:01:40.411Z,100011.88
2023-02-17T07:04:08.831Z,100013.66
2023-02-17T07:06:38.478Z,100011.06
2023-02-17T07:09:06.720Z,100001.25
2023-02-17T07:11:35.476Z,99997.63
2023-02-17T07:14:03.706Z,99987.91
2023-02-17T07:16:32.409Z,99976.66
2023-02-17T07:19:01.051Z,99994.06
2023-02-17T07:21:29.418Z,99978.38
2023-02-17T07:23:58.864Z,99987.13
2023-02-17T07:26:27.425Z,99968.78
2023-02-17T07:28:55.745Z,99934.03
2023-02-17T07:31:24.096Z,99952.22
2023-02-17T07:33:52.442Z,99936.44
2023-02-17T07:36:21.226Z,99899.69
2023-02-17T07:38:49.898Z,99865.78
2023-02-17T07:41:21.498Z,99909.22
2023-02-17T07:43:58.060Z,99884.81
2023-02-17T07:46:26.666Z,99902.19
2023-02-17T07:48:54.967Z,99894.19
2023-02-17T07:51:24.119Z,99890.97
2023-02-17T07:53:55.395Z,99874.16
2023-02-17T07:56:26.713Z,99876.69
2023-02-17T07:58:55.175Z,99870.59
2023-02-17T08:01:25.302Z,99857.44
2023-02-17T08:03:55.464Z,99846.25
2023-02-17T08:06:27.383Z,99828.00
2023-02-17T08:09:14.076Z,99815.75
2023-02-17T08:12:01.343Z,99810.31
2023-02-17T08:14:31.857Z,99808.41
2023-02-17T08:17:00.513Z,99790.88
2023-02-17T08:19:39.712Z,99761.47
2023-02-17T08:22:14.733Z,99768.19
2023-02-17T08:24:46.529Z,99747.31
2023-02-17T08:27:17.447Z,99752.44
2023-02-17T08:29:46.691Z,99743.69
2023-02-17T08:32:16.878Z,99727.03
2023-02-17T08:34:47.522Z,99708.97
2023-02-17T08:37:15.761Z,99710.69
2023-02-17T08:39:44.017Z,99706.16
2023-02-17T08:42:12.555Z,99701.72
2023-02-17T08:44:42.064Z,99700.06
2023-02-17T08:47:12.562Z,99687.91
2023-02-17T08:49:42.275Z,99679.00
2023-02-17T08:52:10.359Z,99675.53
2023-02-17T08:54:38.840Z,99666.81
2023-02-17T08:57:07.061Z,99663.44
2023-02-17T08:59:37.348Z,99628.53
2023-02-17T09:02:07.269Z,99645.88
2023-02-17T09:04:36.859Z,99614.44
2023-02-17T09:07:05.017Z,99626.44
2023-02-17T09:09:34.349Z,99629.22
2023-02-17T09:12:04.696Z,99599.47
2023-02-17T09:14:36.182Z,99600.34
2023-02-17T09:17:09.736Z,99586.44
2023-02-17T09:19:41.347Z,99581.03
2023-02-17T09:22:13.593Z,99576.03
2023-02-17T09:24:48.813Z,99542.56
2023-02-17T09:27:17.049Z,99543.19
2023-02-17T09:29:45.539Z,99525.78
2023-02-17T09:32:14.068Z,99523.94
2023-02-17T09:34:49.755Z,99530.69
2023-02-17T09:37:18.817Z,99498.38
2023-02-17T09:39:47.877Z,99501.81
2023-02-17T09:42:21.003Z,99476.69
2023-02-17T09:44:52.975Z,99473.19
2023-02-17T09:47:29.024Z,99461.00
2023-02-17T09:50:03.928Z,99454.75
2023-02-17T09:52:37.372Z,99445.75
2023-02-17T09:55:08.967Z,99450.22
2023-02-17T09:57:41.725Z,99445.66
2023-02-17T10:00:13.969Z,99444.06
2023-02-17T10:02:52.816Z,99416.97
2023-02-17T10:05:27.423Z,99415.16
2023-02-17T10:08:03.156Z,99388.09
2023-02-17T10:10:36.279Z,99384.66
2023-02-17T10:13:07.152Z,99395.06
2023-02-17T10:15:40.647Z,99388.16
2023-02-17T10:18:15.643Z,99372.41
2023-02-17T10:20:51.888Z,99350.53
2023-02-17T10:23:25.390Z,99339.31
2023-02-17T10:26:10.223Z,99319.06
2023-02-17T10:28:50.587Z,99320.50
2023-02-17T10:31:27.418Z,99290.03
2023-02-17T10:34:03.834Z,99274.16
2023-02-17T10:36:44.511Z,99244.66
2023-02-17T10:39:17.659Z,99185.03
2023-02-17T10:41:50.016Z,99214.00
2023-02-17T10:44:22.250Z,99233.47
2023-02-17T10:46:53.255Z,99218.81
2023-02-17T10:49:28.236Z,99210.88
2023-02-17T10:52:03.047Z,99213.31
2023-02-17T10:54:39.082Z,99181.03
2023-02-17T10:57:14.077Z,99198.34
2023-02-17T10:59:44.268Z,99185.63
2023-02-17T11:02:26.098Z,99159.94
2023-02-17T11:04:56.076Z,99149.53
2023-02-17T11:07:35.945Z,99116.28
2023-02-17T11:10:20.868Z,99130.31
2023-02-17T11:12:50.305Z,99093.50
2023-02-17T11:15:21.429Z,99074.00
2023-02-17T11:17:53.226Z,99061.72
2023-02-17T11:20:33.933Z,99066.97
2023-02-17T11:23:22.175Z,99075.53
2023-02-17T11:26:06.311Z,99035.88
2023-02-17T11:28:34.821Z,99048.09
2023-02-17T11:31:05.042Z,99035.53
2023-02-17T11:33:36.777Z,99014.59
2023-02-17T11:36:13.625Z,99000.81
2023-02-17T11:38:48.510Z,98984.59
2023-02-17T11:41:18.680Z,98986.78
2023-02-17T11:43:54.845Z,98959.94
2023-02-17T11:46:29.099Z,98957.00
2023-02-17T11:49:36.414Z,98939.78
2023-02-17T11:52:22.466Z,98920.97
2023-02-17T11:55:14.934Z,98943.69
2023-02-17T11:57:55.142Z,98908.47
2023-02-17T12:00:28.228Z,98920.44
2023-02-17T12:03:24.940Z,98912.47
2023-02-17T12:06:09.901Z,98912.97
2023-02-17T12:08:52.082Z,98897.22
2023-02-17T12:11:31.970Z,98876.31
2023-02-17T12:14:14.066Z,98877.88
2023-02-17T12:16:49.971Z,98850.03
2023-02-17T12:19:36.981Z,98858.47
2023-02-17T12:22:18.984Z,98852.91
2023-02-17T12:25:04.749Z,98827.66
2023-02-17T12:27:51.379Z,98819.78
2023-02-17T12:30:36.712Z,98817.56
2023-02-17T12:33:17.228Z,98810.81
2023-02-17T12:35:53.131Z,98809.16
2023-02-17T12:38:28.853Z,98801.81
2023-02-17T12:41:05.998Z,98769.97
2023-02-17T12:43:41.312Z,98790.88
2023-02-17T12:46:13.586Z,98761.28
2023-02-17T12:48:47.761Z,98764.75
2023-02-17T12:51:24.681Z,98775.56
2023-02-17T12:53:57.559Z,98756.25
2023-02-17T12:56:58.217Z,98757.84
2023-02-17T12:59:34.806Z,98749.16
2023-02-17T13:02:05.900Z,98744.78
2023-02-17T13:04:36.562Z,98734.16
2023-02-17T13:07:13.368Z,98746.97
2023-02-17T13:09:43.770Z,98725.75
2023-02-17T13:12:28.076Z,98718.56
2023-02-17T13:14:59.209Z,98707.94
2023-02-17T13:17:29.867Z,98704.34
2023-02-17T13:20:38.867Z,98676.91
2023-02-17T13:23:14.330Z,98669.75
2023-02-17T13:25:43.437Z,98695.16
2023-02-17T13:28:36.382Z,98694.94
2023-02-17T13:31:19.009Z,98691.38
2023-02-17T13:33:52.298Z,98688.69
2023-02-17T13:36:24.009Z,98679.84
2023-02-17T13:39:01.751Z,98662.47
2023-02-17T13:41:34.786Z,98632.88
2023-02-17T13:44:25.999Z,98626.03
2023-02-17T13:47:00.837Z,98631.03
2023-02-17T13:49:33.186Z,98631.50
2023-02-17T13:52:20.888Z,98633.94
2023-02-17T13:54:56.884Z,98615.25
2023-02-17T13:57:27.347Z,98620.56
2023-02-17T14:00:07.076Z,98614.38
2023-02-17T14:02:40.271Z,98603.63
2023-02-17T14:05:19.592Z,98590.78
2023-02-17T14:07:48.740Z,98594.47
2023-02-17T14:10:23.654Z,98573.06
2023-02-17T14:12:52.422Z,98571.47
2023-02-17T14:15:22.682Z,98552.00
2023-02-17T14:17:52.598Z,98547.25
2023-02-17T14:20:33.835Z,98543.44
2023-02-17T14:23:07.477Z,98538.06
2023-02-17T14:25:56.915Z,98523.88
2023-02-17T14:28:28.525Z,98508.34
2023-02-17T14:30:56.987Z,98497.94
2023-02-17T14:33:29.539Z,98489.50
2023-02-17T14:36:00.214Z,98475.50
2023-02-17T14:38:32.105Z,98471.09
2023-02-17T14:41:01.192Z,98461.75
2023-02-17T14:43:30.034Z,98466.75
2023-02-17T14:45:58.300Z,98444.66
2023-02-17T14:48:27.896Z,98444.66
2023-02-17T14:50:59.388Z,98398.56
2023-02-17T14:53:30.915Z,98416.91
2023-02-17T14:56:02.593Z,98400.28
2023-02-17T14:58:31.874Z,98390.34
2023-02-17T15:01:01.336Z,98365.31
2023-02-17T15:03:30.042Z,98355.28
2023-02-17T15:06:01.374Z,98359.66
2023-02-17T15:08:33.695Z,98356.34
2023-02-17T15:11:02.526Z,98347.47
2023-02-17T15:13:32.140Z,98334.50
2023-02-17T15:16:01.117Z,98320.81
2023-02-17T15:18:29.832Z,98298.41
2023-02-17T15:20:59.946Z,98298.88
2023-02-17T15:23:33.472Z,98310.31
2023-02-17T15:26:01.909Z,98261.63
2023-02-17T15:28:30.408Z,98261.38
2023-02-17T15:30:59.337Z,98249.41
2023-02-17T15:33:27.541Z,98244.44
2023-02-17T15:35:56.445Z,98203.19
2023-02-17T15:38:27.383Z,98211.00
2023-02-17T15:40:58.554Z,98205.72
2023-02-17T15:46:13.382Z,98174.25
2023-02-17T15:48:42.520Z,98161.13
2023-02-17T15:51:15.133Z,98161.03
2023-02-17T15:53:45.215Z,98163.53
2023-02-17T15:56:19.048Z,98161.28
2023-02-17T15:58:49.383Z,98138.19
2023-02-17T16:01:23.602Z,98115.09
2023-02-17T16:03:52.210Z,98114.97
2023-02-17T16:06:20.416Z,98103.53
2023-02-17T16:08:50.307Z,98109.31
2023-02-17T16:11:19.709Z,98107.56
2023-02-17T16:13:48.933Z,98066.69
2023-02-17T16:16:20.799Z,98082.97
2023-02-17T16:18:49.569Z,98049.09
2023-02-17T16:21:17.893Z,98081.53
2023-02-17T16:23:46.476Z,98078.13
2023-02-17T16:26:24.117Z,98052.53
2023-02-17T16:28:52.903Z,98049.22
2023-02-17T16:31:21.271Z,98049.75
2023-02-17T16:33:50.336Z,98048.97
2023-02-17T16:36:21.493Z,98062.44
2023-02-17T16:38:51.760Z,98060.53
2023-02-17T16:41:22.097Z,98054.09
2023-02-17T16:43:50.369Z,98041.63
2023-02-17T16:46:24.200Z,98040.03
2023-02-17T16:48:54.186Z,98039.13
2023-02-17T16:51:22.656Z,98049.53
2023-02-17T16:53:50.742Z,98048.16
2023-02-17T16:56:27.694Z,98047.56
2023-02-17T16:58:56.076Z,98044.34
2023-02-17T17:01:24.522Z,98019.63
2023-02-17T17:03:52.833Z,98032.66
2023-02-17T17:06:25.314Z,98044.47
2023-02-17T17:08:54.246Z,98039.78
2023-02-17T17:11:27.630Z,98056.31
2023-02-17T17:13:56.002Z,98032.81
2023-02-17T17:16:28.639Z,98057.25
2023-02-17T17:18:57.282Z,98063.91
2023-02-17T17:21:25.944Z,98075.47
2023-02-17T17:23:54.614Z,98090.06
2023-02-17T17:26:28.134Z,98077.75
2023-02-17T17:28:57.507Z,98057.50
2023-02-17T17:31:26.634Z,98088.88
2023-02-17T17:33:56.115Z,98107.13
2023-02-17T17:36:28.380Z,98093.72
2023-02-17T17:38:58.005Z,98100.06
2023-02-17T17:41:29.977Z,98113.81
2023-02-17T17:43:58.768Z,98121.28
2023-02-17T17:46:29.995Z,98107.38
2023-02-17T17:49:00.555Z,98118.66
2023-02-17T17:51:30.471Z,98105.28
2023-02-17T17:53:59.214Z,98125.34
2023-02-17T17:56:33.647Z,98136.91
2023-02-17T17:59:03.648Z,98152.13
2023-02-17T18:01:32.489Z,98148.19
2023-02-17T18:04:02.402Z,98155.16
2023-02-17T18:06:34.648Z,98155.31
2023-02-17T18:09:06.108Z,98178.63
2023-02-17T18:11:38.194Z,98185.97
2023-02-17T18:14:12.452Z,98194.69
2023-02-17T18:16:45.218Z,98151.22
2023-02-17T18:19:14.344Z,98213.09
2023-02-17T18:21:42.816Z,98206.66
2023-02-17T18:24:11.179Z,98238.97
2023-02-17T18:26:41.098Z,98240.69
2023-02-17T18:29:09.369Z,98240.94
2023-02-17T18:31:38.482Z,98253.69
2023-02-17T18:34:06.803Z,98277.19
2023-02-17T18:36:35.182Z,98289.44
2023-02-17T18:39:03.532Z,98282.47
2023-02-17T18:41:34.324Z,98286.38
2023-02-17T18:44:06.034Z,98249.84
2023-02-17T18:46:35.186Z,98274.19
2023-02-17T18:49:03.652Z,98340.41
2023-02-17T18:51:34.591Z,98355.50
2023-02-17T18:54:03.102Z,98352.22
2023-02-17T18:56:34.187Z,98366.44
2023-02-17T18:59:04.423Z,98368.63
2023-02-17T19:01:34.802Z,98401.47
2023-02-17T19:04:05.396Z,98412.28
2023-02-17T19:06:35.521Z,98424.75
2023-02-17T19:09:04.998Z,98428.16
2023-02-17T19:11:34.122Z,98435.63
2023-02-17T19:14:04.354Z,98459.19
2023-02-17T19:16:34.530Z,98454.31
2023-02-17T19:19:07.904Z,98457.09
2023-02-17T19:21:36.557Z,98485.97
2023-02-17T19:24:05.676Z,98503.09
2023-02-17T19:26:34.607Z,98497.47
2023-02-17T19:29:05.727Z,98547.41
2023-02-17T19:31:35.450Z,98569.25
2023-02-17T19:34:06.898Z,98560.19
2023-02-17T19:36:35.780Z,98574.94
2023-02-17T19:39:04.688Z,98579.50
2023-02-17T19:41:35.698Z,98582.72
2023-02-17T19:44:06.882Z,98616.41
2023-02-17T19:46:35.616Z,98638.72
2023-02-17T19:49:04.993Z,98596.88
2023-02-17T19:51:33.543Z,98652.09
2023-02-17T19:54:03.034Z,98653.94
2023-02-17T19:56:33.604Z,98682.69
2023-02-17T19:59:01.872Z,98681.25
2023-02-17T20:01:34.063Z,98704.38
2023-02-17T20:04:06.302Z,98710.38
2023-02-17T20:06:39.617Z,98727.81
2023-02-17T20:09:11.529Z,98736.94
2023-02-17T20:11:43.280Z,98739.06
2023-02-17T20:14:12.279Z,98765.56
2023-02-17T20:16:42.340Z,98766.06
2023-02-17T20:19:10.662Z,98782.97
2023-02-17T20:21:42.550Z,98786.59
2023-02-17T20:24:17.024Z,98795.41
2023-02-17T20:26:47.958Z,98824.59
2023-02-17T20:29:19.461Z,98807.78
2023-02-17T20:31:51.358Z,98824.94
2023-02-17T20:34:28.443Z,98825.22
2023-02-17T20:36:59.347Z,98862.91
2023-02-17T20:39:30.747Z,98850.66
2023-02-17T20:42:02.697Z,98860.84
2023-02-17T20:44:33.990Z,98886.50
2023-02-17T20:47:03.986Z,98883.50
2023-02-17T20:49:32.440Z,98827.81
2023-02-17T20:52:01.065Z,98889.63
2023-02-17T20:54:29.218Z,98924.63
2023-02-17T20:57:01.048Z,98921.50
2023-02-17T20:59:32.814Z,98942.81
2023-02-17T21:02:01.021Z,98948.84
2023-02-17T21:04:30.660Z,98952.09
2023-02-17T21:07:01.282Z,98975.28
2023-02-17T21:09:30.672Z,98984.88
2023-02-17T21:11:58.787Z,98996.78
2023-02-17T21:14:27.213Z,99006.38
2023-02-17T21:16:55.467Z,99023.56
2023-02-17T21:19:23.840Z,99024.00
2023-02-17T21:21:53.530Z,99052.56
2023-02-17T21:24:21.833Z,99051.97
2023-02-17T21:26:50.153Z,99067.09
2023-02-17T21:29:18.656Z,99075.88
2023-02-17T21:31:46.867Z,99074.97
2023-02-17T21:34:15.295Z,99072.56
2023-02-17T21:36:43.838Z,99087.47
2023-02-17T21:39:13.879Z,99098.47
2023-02-17T21:41:43.095Z,99127.59
2023-02-17T21:44:31.596Z,99117.34
2023-02-17T21:46:59.758Z,99129.34
2023-02-17T21:49:27.930Z,99153.97
2023-02-17T21:51:56.101Z,99149.19
2023-02-17T21:54:25.526Z,99168.47
2023-02-17T21:56:53.957Z,99180.59
2023-02-17T21:59:22.139Z,99200.00
2023-02-17T22:01:51.976Z,99196.69
2023-02-17T22:04:21.060Z,99220.63
2023-02-17T22:06:49.711Z,99237.97
2023-02-17T22:09:20.313Z,99237.19
2023-02-17T22:11:50.809Z,99237.47
2023-02-17T22:14:21.288Z,99271.72
2023-02-17T22:16:50.189Z,99279.97
2023-02-17T22:19:21.201Z,99261.78
2023-02-17T22:21:51.664Z,99277.16
2023-02-17T22:24:21.456Z,99283.84
2023-02-17T22:26:51.572Z,99284.00
2023-02-17T22:29:20.156Z,99307.75
2023-02-17T22:31:50.314Z,99324.84
2023-02-17T22:34:18.938Z,99328.88
2023-02-17T22:36:47.299Z,99347.66
2023-02-17T22:39:16.146Z,99333.25
2023-02-17T22:41:44.469Z,99355.25
2023-02-17T22:44:14.141Z,99372.47
2023-02-17T22:46:42.494Z,99380.03
2023-02-17T22:49:10.912Z,99398.97
2023-02-17T22:51:41.117Z,99423.47
2023-02-17T22:54:09.890Z,99406.41
2023-02-17T22:56:38.735Z,99449.81
2023-02-17T22:59:07.243Z,99455.91
2023-02-17T23:01:38.075Z,99460.56
2023-02-17T23:04:07.070Z,99481.38
2023-02-17T23:06:36.958Z,99488.47
2023-02-17T23:09:06.930Z,99448.38
2023-02-17T23:11:58.489Z,99490.13
2023-02-17T23:14:28.750Z,99479.84
2023-02-17T23:17:00.943Z,99493.16
2023-02-17T23:19:29.719Z,99504.38
2023-02-17T23:22:00.630Z,99521.63
2023-02-17T23:24:29.226Z,99534.88
2023-02-17T23:26:59.962Z,99553.16
2023-02-17T23:29:32.147Z,99553.47
2023-02-17T23:32:01.881Z,99583.25
2023-02-17T23:34:30.575Z,99570.94
2023-02-17T23:36:58.944Z,99593.69
2023-02-17T23:39:27.455Z,99590.19
2023-02-17T23:41:55.650Z,99604.13
2023-02-17T23:44:24.030Z,99611.19
2023-02-17T23:46:52.214Z,99606.81
2023-02-17T23:49:22.147Z,99630.56
2023-02-17T23:51:51.660Z,99639.25
2023-02-17T23:54:20.335Z,99632.44
2023-02-17T23:56:48.569Z,99636.94
2023-02-17T23:59:16.736Z,99666.59
